Terminal Aerodrome Forecast
Issued by NWS

Home | Current Version | Previous Version | Text Only | Print | Product List | Glossary Off
Versions: 1 2 3 4 5 6 7 8 9 10 11 12 13 14 15 16 17 18 19 20 21 22 23 24 25

000
FTUS42 KMHX 171100
TAFISO
TAF
KISO 171123Z 1712/1812 04005KT P6SM SCT025 BKN035 BKN050
     FM171900 04005KT P6SM VCSH BKN050
     FM180400 03005KT P6SM BKN050 BKN100
      AMD LTD TO CLD VIS AND WIND=

USA.gov is the U.S. government's official web portal to all federal, state and local government web resources and services.